Airfield :
LOGIN :

Register | Disclaimer

   EN    FR    IT 

 










Legend :    VFR   Marginal VFR   IFR   Intensive IFR   Very Intensive IFR
Visi :
Ceiling :
>= 8 km
>= 3000ft
5 to 8 km
1000 to 3000 ft
1500m to 5 km
500 to 1000 ft
800 to 1500m
200 to 500 ft
< 800m
< 200 ft
Symbols :   Thunderstorms  Fog  Heavy snow  Heavy precipitations  Wind > 20 kt
SIGMETs :     Misc.  Thunderstorms  Icing  Turbulence  Mountain Waves  Volcanic Ashes






- Airport Elevation : 82 ft
- IATA code : QIE


LFMI - Istres

CURRENT METAR :
  • 121400Z AUTO 30005KT CAVOK 11/02 Q1008

EXPIRED METARs :
  • 121330Z AUTO 30005KT 260V330 CAVOK 11/01 Q1008
  • 121300Z AUTO 32005KT 280V350 CAVOK 11/02 Q1009
  • 121230Z AUTO 32007KT 280V340 CAVOK 10/01 Q1010
  • 121200Z AUTO 36008KT CAVOK 10/01 Q1010
  • 121130Z AUTO 32010KT CAVOK 10/01 Q1011

TAF TAF LFMI
Valid from the 12 at 03:00 until the 13 at 03:00 UTC


120200Z 1203/1303 30010KT CAVOK
BECMG 1218/1221 08010KT BKN010
TEMPO 1221/1224 4000 RA



MET'MAP, your aeronautical weather chart ! - Copyright ORBIFLY December 2007 - Disclaimer

ORBIFLY MET'MAP TEAM :

Programming & Development : Alexandra Zaïnal
Concept & original design : Baudouin d'Aumeries
Assistance for programming : Marc-Olivier Méhu
Technical & hardware support : Manuel Goepfert

Contact : metmap@orbifly.com




SOURCES & CREDITS :

   NOAA